Bremerton, WA

3:07 AM PST on December 19, 2014 (GMT -0800)
Boeing Field-King County International | Change Station
CLOSE
Current Station
Airport
Location: Seattle Boeing,
Elevation: 16 ft
Nearby Weather Stations

Elev 16 ft 47.53 °N, 122.30 °W | Updated 14 minutes ago

Overcast
Overcast
50 °F
Feels Like 50 °F
N
5
Wind Variable Wind from South

Today
High -- | Low -- °F
--% Chance of Precip.
Yesterday
High -- | Low -- °F
Precip. -- in
7:54 AM 4:20 PM
Waning Crescent, 8% visible
Pressure 29.82 in
Visibility 10.0 miles
Clouds Scattered Clouds 600 ft
Mostly Cloudy 3200 ft
Overcast 5000 ft
Dew Point 43 °F
Humidity 77%
Rainfall 0.09 in
Snow Depth Not available.
UV 0 out of 12
Pollen .70 out of 12
Air Quality Not available.
Flu Activity Not available.
METAR KBFI 191053Z 19004KT 10SM SCT006 BKN032 OVC050 10/06 A2982 RMK AO2 RAE34 SLP098 P0001 T01000061

More Conditions Fewer Conditions

Pressure 29.82 in
Visibility 10.0 miles
Clouds Scattered Clouds 600 ft
Mostly Cloudy 3200 ft
Overcast 5000 ft
Dew Point 43 °F
Humidity 77%
Rainfall 0.09 in
Snow Depth Not available.
UV 0 out of 12
Pollen .70 out of 12
Air Quality Not available.
Flu Activity Not available.
METAR KBFI 191053Z 19004KT 10SM SCT006 BKN032 OVC050 10/06 A2982 RMK AO2 RAE34 SLP098 P0001 T01000061

More Conditions Fewer Conditions

10-Day Weather Forecast

Almanac

Astronomy

Dec. 19, 2014 Rise Set
Actual Time
Civil Twilight
Nautical Twilight
Astronomical Twilight
Moon
Length of Visible Light
Length of Day
Tomorrow will be .
, % of the Moon is Illuminated

Today's Extremes

State Highs State Lows

Community

WunderPhotos

Upload Photos

1,778,965 photos uploaded!

WunderBlogs® & News

Nearby

Air Quality

  Air Quality AQ Index Pollutant
Not available.

Snow Depth

Station Depth Elevation

Earthquake Activity

City Distance Mag. Time & Date
Minimum magnitude displayed is 2.5.

Coastal Water Temperatures

Place Temperature

Nearby Weather Stations